sensor_id;sensor_type;location;lat;lon;timestamp;temperature;humidity
14604;DHT22;7388;51.078;13.740;2023-06-22T00:00:55;26.20;44.80
14604;DHT22;7388;51.078;13.740;2023-06-22T00:03:22;26.30;44.60
14604;DHT22;7388;51.078;13.740;2023-06-22T00:05:50;26.30;44.30
14604;DHT22;7388;51.078;13.740;2023-06-22T00:08:16;26.20;44.40
14604;DHT22;7388;51.078;13.740;2023-06-22T00:10:43;26.20;44.50
14604;DHT22;7388;51.078;13.740;2023-06-22T00:13:09;26.10;44.60
14604;DHT22;7388;51.078;13.740;2023-06-22T00:15:37;26.00;44.80
14604;DHT22;7388;51.078;13.740;2023-06-22T00:18:04;26.00;45.00
14604;DHT22;7388;51.078;13.740;2023-06-22T00:20:32;26.00;45.00
14604;DHT22;7388;51.078;13.740;2023-06-22T00:22:58;26.00;45.00
14604;DHT22;7388;51.078;13.740;2023-06-22T00:25:25;26.00;45.00
14604;DHT22;7388;51.078;13.740;2023-06-22T00:27:51;25.90;44.50
14604;DHT22;7388;51.078;13.740;2023-06-22T00:30:18;25.80;44.90
14604;DHT22;7388;51.078;13.740;2023-06-22T00:32:44;25.70;45.10
14604;DHT22;7388;51.078;13.740;2023-06-22T00:35:13;25.70;45.20
14604;DHT22;7388;51.078;13.740;2023-06-22T00:37:39;25.70;45.20
14604;DHT22;7388;51.078;13.740;2023-06-22T00:40:09;25.70;45.10
14604;DHT22;7388;51.078;13.740;2023-06-22T00:42:37;25.80;44.80
14604;DHT22;7388;51.078;13.740;2023-06-22T00:45:04;25.70;44.90
14604;DHT22;7388;51.078;13.740;2023-06-22T00:47:30;25.60;45.00
14604;DHT22;7388;51.078;13.740;2023-06-22T00:49:56;25.50;45.20
14604;DHT22;7388;51.078;13.740;2023-06-22T00:52:23;25.50;45.40
14604;DHT22;7388;51.078;13.740;2023-06-22T00:54:54;25.50;45.40
14604;DHT22;7388;51.078;13.740;2023-06-22T00:57:22;25.50;45.30
14604;DHT22;7388;51.078;13.740;2023-06-22T00:59:54;25.50;45.00
14604;DHT22;7388;51.078;13.740;2023-06-22T01:02:20;25.50;45.00
14604;DHT22;7388;51.078;13.740;2023-06-22T01:04:46;25.40;45.20
14604;DHT22;7388;51.078;13.740;2023-06-22T01:09:59;25.40;45.30
14604;DHT22;7388;51.078;13.740;2023-06-22T01:12:34;25.40;45.50
14604;DHT22;7388;51.078;13.740;2023-06-22T01:15:09;25.30;45.60
14604;DHT22;7388;51.078;13.740;2023-06-22T01:17:37;25.30;45.70
14604;DHT22;7388;51.078;13.740;2023-06-22T01:20:06;25.30;45.50
14604;DHT22;7388;51.078;13.740;2023-06-22T01:22:46;25.30;45.50
14604;DHT22;7388;51.078;13.740;2023-06-22T01:25:20;25.30;45.40
14604;DHT22;7388;51.078;13.740;2023-06-22T01:30:49;25.30;45.40
14604;DHT22;7388;51.078;13.740;2023-06-22T01:33:33;25.30;45.60
14604;DHT22;7388;51.078;13.740;2023-06-22T01:36:01;25.30;45.40
14604;DHT22;7388;51.078;13.740;2023-06-22T01:38:29;25.20;45.60
14604;DHT22;7388;51.078;13.740;2023-06-22T01:40:55;25.10;45.70
14604;DHT22;7388;51.078;13.740;2023-06-22T01:43:23;25.00;45.80
14604;DHT22;7388;51.078;13.740;2023-06-22T01:45:51;25.00;45.90
14604;DHT22;7388;51.078;13.740;2023-06-22T01:48:17;24.90;46.00
14604;DHT22;7388;51.078;13.740;2023-06-22T01:50:44;24.90;46.10
14604;DHT22;7388;51.078;13.740;2023-06-22T01:53:10;25.00;46.10
14604;DHT22;7388;51.078;13.740;2023-06-22T01:55:35;25.00;46.00
14604;DHT22;7388;51.078;13.740;2023-06-22T01:58:01;25.00;46.00
14604;DHT22;7388;51.078;13.740;2023-06-22T02:00:28;25.00;46.00
14604;DHT22;7388;51.078;13.740;2023-06-22T02:03:11;25.00;46.20
14604;DHT22;7388;51.078;13.740;2023-06-22T02:05:46;25.00;46.00
14604;DHT22;7388;51.078;13.740;2023-06-22T02:08:20;25.00;46.00
14604;DHT22;7388;51.078;13.740;2023-06-22T02:10:47;25.00;46.00
14604;DHT22;7388;51.078;13.740;2023-06-22T02:13:14;24.90;46.10
14604;DHT22;7388;51.078;13.740;2023-06-22T02:15:41;24.90;46.20
14604;DHT22;7388;51.078;13.740;2023-06-22T02:18:07;24.90;46.50
14604;DHT22;7388;51.078;13.740;2023-06-22T02:20:37;24.80;46.60
14604;DHT22;7388;51.078;13.740;2023-06-22T02:23:02;24.90;46.70
14604;DHT22;7388;51.078;13.740;2023-06-22T02:25:28;24.80;46.70
14604;DHT22;7388;51.078;13.740;2023-06-22T02:27:54;24.90;46.60
14604;DHT22;7388;51.078;13.740;2023-06-22T02:30:19;24.90;46.80
14604;DHT22;7388;51.078;13.740;2023-06-22T02:32:45;24.80;46.70
14604;DHT22;7388;51.078;13.740;2023-06-22T02:35:11;24.90;46.80
14604;DHT22;7388;51.078;13.740;2023-06-22T02:37:37;24.80;46.70
14604;DHT22;7388;51.078;13.740;2023-06-22T02:40:06;24.70;46.90
14604;DHT22;7388;51.078;13.740;2023-06-22T02:42:33;24.70;47.00
14604;DHT22;7388;51.078;13.740;2023-06-22T02:44:59;24.80;47.00
14604;DHT22;7388;51.078;13.740;2023-06-22T02:47:25;24.70;46.90
14604;DHT22;7388;51.078;13.740;2023-06-22T02:49:51;24.70;46.90
14604;DHT22;7388;51.078;13.740;2023-06-22T02:52:17;24.60;46.90
14604;DHT22;7388;51.078;13.740;2023-06-22T02:54:43;24.70;46.80
14604;DHT22;7388;51.078;13.740;2023-06-22T02:57:11;24.70;46.90
14604;DHT22;7388;51.078;13.740;2023-06-22T02:59:42;24.70;46.90
14604;DHT22;7388;51.078;13.740;2023-06-22T03:02:08;24.70;46.80
14604;DHT22;7388;51.078;13.740;2023-06-22T03:04:35;24.70;46.70
14604;DHT22;7388;51.078;13.740;2023-06-22T03:07:01;24.70;46.60
14604;DHT22;7388;51.078;13.740;2023-06-22T03:09:27;24.70;46.70
14604;DHT22;7388;51.078;13.740;2023-06-22T03:11:56;24.60;46.60
14604;DHT22;7388;51.078;13.740;2023-06-22T03:14:22;24.60;46.90
14604;DHT22;7388;51.078;13.740;2023-06-22T03:16:48;24.50;47.10
14604;DHT22;7388;51.078;13.740;2023-06-22T03:19:14;24.50;47.40
14604;DHT22;7388;51.078;13.740;2023-06-22T03:21:40;24.50;47.40
14604;DHT22;7388;51.078;13.740;2023-06-22T03:24:06;24.50;47.30
14604;DHT22;7388;51.078;13.740;2023-06-22T03:26:33;24.60;47.30
14604;DHT22;7388;51.078;13.740;2023-06-22T03:29:00;24.60;47.10
14604;DHT22;7388;51.078;13.740;2023-06-22T03:31:26;24.60;47.20
14604;DHT22;7388;51.078;13.740;2023-06-22T03:33:51;24.60;47.30
14604;DHT22;7388;51.078;13.740;2023-06-22T03:36:18;24.60;47.50
14604;DHT22;7388;51.078;13.740;2023-06-22T03:38:49;24.50;47.80
14604;DHT22;7388;51.078;13.740;2023-06-22T03:41:15;24.50;48.00
14604;DHT22;7388;51.078;13.740;2023-06-22T03:43:41;24.40;48.20
14604;DHT22;7388;51.078;13.740;2023-06-22T03:46:07;24.40;48.40
14604;DHT22;7388;51.078;13.740;2023-06-22T03:48:33;24.50;48.30
14604;DHT22;7388;51.078;13.740;2023-06-22T03:51:02;24.50;48.30
14604;DHT22;7388;51.078;13.740;2023-06-22T03:53:29;24.60;48.40
14604;DHT22;7388;51.078;13.740;2023-06-22T03:55:56;24.70;48.30
14604;DHT22;7388;51.078;13.740;2023-06-22T03:58:21;24.70;48.20
14604;DHT22;7388;51.078;13.740;2023-06-22T04:00:51;24.80;48.00
14604;DHT22;7388;51.078;13.740;2023-06-22T04:03:18;24.80;48.00
14604;DHT22;7388;51.078;13.740;2023-06-22T04:05:44;23.90;47.70
14604;DHT22;7388;51.078;13.740;2023-06-22T04:08:10;24.90;48.10
14604;DHT22;7388;51.078;13.740;2023-06-22T04:10:36;24.90;48.20
14604;DHT22;7388;51.078;13.740;2023-06-22T04:13:02;24.90;48.30
14604;DHT22;7388;51.078;13.740;2023-06-22T04:15:27;25.00;48.20
14604;DHT22;7388;51.078;13.740;2023-06-22T04:17:55;25.00;48.00
14604;DHT22;7388;51.078;13.740;2023-06-22T04:20:21;25.00;48.20
14604;DHT22;7388;51.078;13.740;2023-06-22T04:22:47;25.10;48.20
14604;DHT22;7388;51.078;13.740;2023-06-22T04:25:13;25.20;48.10
14604;DHT22;7388;51.078;13.740;2023-06-22T04:27:39;25.20;48.00
14604;DHT22;7388;51.078;13.740;2023-06-22T04:30:08;25.20;48.00
14604;DHT22;7388;51.078;13.740;2023-06-22T04:32:35;25.30;47.90
14604;DHT22;7388;51.078;13.740;2023-06-22T04:35:04;25.30;47.80
14604;DHT22;7388;51.078;13.740;2023-06-22T04:37:33;25.40;47.40
14604;DHT22;7388;51.078;13.740;2023-06-22T04:39:59;25.40;46.90
14604;DHT22;7388;51.078;13.740;2023-06-22T04:42:28;25.40;47.30
14604;DHT22;7388;51.078;13.740;2023-06-22T04:44:54;25.50;47.00
14604;DHT22;7388;51.078;13.740;2023-06-22T04:47:20;25.50;46.80
14604;DHT22;7388;51.078;13.740;2023-06-22T04:49:46;25.50;47.10
14604;DHT22;7388;51.078;13.740;2023-06-22T04:52:13;25.60;46.80
14604;DHT22;7388;51.078;13.740;2023-06-22T04:54:40;25.60;46.40
14604;DHT22;7388;51.078;13.740;2023-06-22T04:57:13;25.60;46.10
14604;DHT22;7388;51.078;13.740;2023-06-22T04:59:39;25.60;46.60
14604;DHT22;7388;51.078;13.740;2023-06-22T05:02:07;25.70;46.60
14604;DHT22;7388;51.078;13.740;2023-06-22T05:04:34;25.80;46.30
14604;DHT22;7388;51.078;13.740;2023-06-22T05:07:04;25.90;46.20
14604;DHT22;7388;51.078;13.740;2023-06-22T05:09:30;26.00;46.30
14604;DHT22;7388;51.078;13.740;2023-06-22T05:11:56;26.10;46.50
14604;DHT22;7388;51.078;13.740;2023-06-22T05:14:22;26.20;46.30
14604;DHT22;7388;51.078;13.740;2023-06-22T05:16:49;26.30;46.30
14604;DHT22;7388;51.078;13.740;2023-06-22T05:19:14;26.40;46.30
14604;DHT22;7388;51.078;13.740;2023-06-22T05:21:40;26.50;45.70
14604;DHT22;7388;51.078;13.740;2023-06-22T05:24:06;26.60;45.70
14604;DHT22;7388;51.078;13.740;2023-06-22T05:26:33;26.60;45.60
14604;DHT22;7388;51.078;13.740;2023-06-22T05:29:01;26.80;45.60
14604;DHT22;7388;51.078;13.740;2023-06-22T05:31:28;26.90;45.20
14604;DHT22;7388;51.078;13.740;2023-06-22T05:33:54;27.00;45.40
14604;DHT22;7388;51.078;13.740;2023-06-22T05:36:21;27.20;45.00
14604;DHT22;7388;51.078;13.740;2023-06-22T05:38:50;27.20;44.90
14604;DHT22;7388;51.078;13.740;2023-06-22T05:41:16;27.30;44.80
14604;DHT22;7388;51.078;13.740;2023-06-22T05:43:42;27.40;44.40
14604;DHT22;7388;51.078;13.740;2023-06-22T05:46:08;27.40;44.20
14604;DHT22;7388;51.078;13.740;2023-06-22T05:48:34;27.50;44.30
14604;DHT22;7388;51.078;13.740;2023-06-22T05:51:00;27.50;43.60
14604;DHT22;7388;51.078;13.740;2023-06-22T05:53:25;27.50;44.10
14604;DHT22;7388;51.078;13.740;2023-06-22T05:55:51;27.60;43.70
14604;DHT22;7388;51.078;13.740;2023-06-22T05:58:17;27.60;43.00
14604;DHT22;7388;51.078;13.740;2023-06-22T06:00:43;27.60;43.10
14604;DHT22;7388;51.078;13.740;2023-06-22T06:03:09;27.70;43.10
14604;DHT22;7388;51.078;13.740;2023-06-22T06:05:36;27.70;43.00
14604;DHT22;7388;51.078;13.740;2023-06-22T06:08:03;27.70;43.20
14604;DHT22;7388;51.078;13.740;2023-06-22T06:10:33;27.90;43.40
14604;DHT22;7388;51.078;13.740;2023-06-22T06:12:59;27.80;43.20
14604;DHT22;7388;51.078;13.740;2023-06-22T06:15:27;27.90;43.00
14604;DHT22;7388;51.078;13.740;2023-06-22T06:17:54;28.00;43.20
14604;DHT22;7388;51.078;13.740;2023-06-22T06:20:23;27.90;42.40
14604;DHT22;7388;51.078;13.740;2023-06-22T06:22:49;27.90;42.00
14604;DHT22;7388;51.078;13.740;2023-06-22T06:25:16;28.00;42.70
14604;DHT22;7388;51.078;13.740;2023-06-22T06:27:46;28.10;42.80
14604;DHT22;7388;51.078;13.740;2023-06-22T06:30:13;28.10;43.00
14604;DHT22;7388;51.078;13.740;2023-06-22T06:32:40;28.20;42.20
14604;DHT22;7388;51.078;13.740;2023-06-22T06:35:07;28.20;42.00
14604;DHT22;7388;51.078;13.740;2023-06-22T06:37:36;28.10;41.90
14604;DHT22;7388;51.078;13.740;2023-06-22T06:40:03;28.10;42.10
14604;DHT22;7388;51.078;13.740;2023-06-22T06:42:31;28.10;42.20
14604;DHT22;7388;51.078;13.740;2023-06-22T06:44:57;28.10;42.90
14604;DHT22;7388;51.078;13.740;2023-06-22T06:47:22;28.10;42.60
14604;DHT22;7388;51.078;13.740;2023-06-22T06:49:48;28.20;42.40
14604;DHT22;7388;51.078;13.740;2023-06-22T06:52:14;28.20;42.80
14604;DHT22;7388;51.078;13.740;2023-06-22T06:54:40;28.30;43.10
14604;DHT22;7388;51.078;13.740;2023-06-22T06:57:07;28.30;43.10
14604;DHT22;7388;51.078;13.740;2023-06-22T07:00:13;28.30;42.80
14604;DHT22;7388;51.078;13.740;2023-06-22T07:02:40;28.50;43.30
14604;DHT22;7388;51.078;13.740;2023-06-22T07:05:07;28.50;42.70
14604;DHT22;7388;51.078;13.740;2023-06-22T07:07:33;28.70;42.10
14604;DHT22;7388;51.078;13.740;2023-06-22T07:09:59;28.80;42.10
14604;DHT22;7388;51.078;13.740;2023-06-22T07:12:25;28.90;42.00
14604;DHT22;7388;51.078;13.740;2023-06-22T07:14:52;29.00;42.20
14604;DHT22;7388;51.078;13.740;2023-06-22T07:17:18;29.10;42.10
14604;DHT22;7388;51.078;13.740;2023-06-22T07:19:44;29.20;42.30
14604;DHT22;7388;51.078;13.740;2023-06-22T07:22:09;29.40;41.70
14604;DHT22;7388;51.078;13.740;2023-06-22T07:24:35;29.60;40.90
14604;DHT22;7388;51.078;13.740;2023-06-22T07:27:02;29.70;40.60
14604;DHT22;7388;51.078;13.740;2023-06-22T07:29:29;29.80;40.50
14604;DHT22;7388;51.078;13.740;2023-06-22T07:31:55;30.00;40.30
14604;DHT22;7388;51.078;13.740;2023-06-22T07:34:22;30.10;40.40
14604;DHT22;7388;51.078;13.740;2023-06-22T07:36:48;30.10;41.70
14604;DHT22;7388;51.078;13.740;2023-06-22T07:39:14;30.30;39.50
14604;DHT22;7388;51.078;13.740;2023-06-22T07:41:40;30.40;40.20
14604;DHT22;7388;51.078;13.740;2023-06-22T07:44:06;30.40;40.90
14604;DHT22;7388;51.078;13.740;2023-06-22T07:46:33;30.60;40.10
14604;DHT22;7388;51.078;13.740;2023-06-22T07:48:59;30.70;39.60
14604;DHT22;7388;51.078;13.740;2023-06-22T07:51:25;30.80;39.50
14604;DHT22;7388;51.078;13.740;2023-06-22T07:53:51;30.80;38.20
14604;DHT22;7388;51.078;13.740;2023-06-22T07:56:17;30.80;38.60
14604;DHT22;7388;51.078;13.740;2023-06-22T07:58:47;30.90;38.10
14604;DHT22;7388;51.078;13.740;2023-06-22T08:01:16;30.80;38.60
14604;DHT22;7388;51.078;13.740;2023-06-22T08:03:42;30.90;38.50
14604;DHT22;7388;51.078;13.740;2023-06-22T08:06:09;30.90;38.70
14604;DHT22;7388;51.078;13.740;2023-06-22T08:08:38;31.00;39.80
14604;DHT22;7388;51.078;13.740;2023-06-22T08:11:03;31.20;39.50
14604;DHT22;7388;51.078;13.740;2023-06-22T08:13:30;31.30;39.10
14604;DHT22;7388;51.078;13.740;2023-06-22T08:15:56;31.40;39.20
14604;DHT22;7388;51.078;13.740;2023-06-22T08:18:21;31.50;39.00
14604;DHT22;7388;51.078;13.740;2023-06-22T08:20:47;31.60;38.90
14604;DHT22;7388;51.078;13.740;2023-06-22T08:23:13;31.70;37.80
14604;DHT22;7388;51.078;13.740;2023-06-22T08:25:38;31.80;37.90
14604;DHT22;7388;51.078;13.740;2023-06-22T08:28:04;31.80;36.70
14604;DHT22;7388;51.078;13.740;2023-06-22T08:30:31;31.80;36.50
14604;DHT22;7388;51.078;13.740;2023-06-22T08:32:56;31.90;35.80
14604;DHT22;7388;51.078;13.740;2023-06-22T08:35:23;32.00;36.90
14604;DHT22;7388;51.078;13.740;2023-06-22T08:37:48;32.10;35.80
14604;DHT22;7388;51.078;13.740;2023-06-22T08:40:20;32.20;36.20
14604;DHT22;7388;51.078;13.740;2023-06-22T08:42:47;32.30;36.10
14604;DHT22;7388;51.078;13.740;2023-06-22T08:45:13;32.30;34.30
14604;DHT22;7388;51.078;13.740;2023-06-22T08:47:40;32.30;34.40
14604;DHT22;7388;51.078;13.740;2023-06-22T08:50:10;32.40;33.20
14604;DHT22;7388;51.078;13.740;2023-06-22T08:52:37;32.40;33.10
14604;DHT22;7388;51.078;13.740;2023-06-22T08:55:04;32.50;33.40
14604;DHT22;7388;51.078;13.740;2023-06-22T08:57:30;32.60;34.30
14604;DHT22;7388;51.078;13.740;2023-06-22T08:59:59;32.70;34.30
14604;DHT22;7388;51.078;13.740;2023-06-22T09:02:28;32.90;33.90
14604;DHT22;7388;51.078;13.740;2023-06-22T09:04:57;32.90;32.30
14604;DHT22;7388;51.078;13.740;2023-06-22T09:07:24;32.90;32.70
14604;DHT22;7388;51.078;13.740;2023-06-22T09:09:50;33.00;33.60
14604;DHT22;7388;51.078;13.740;2023-06-22T09:12:20;33.10;33.70
14604;DHT22;7388;51.078;13.740;2023-06-22T09:14:48;33.10;32.80
14604;DHT22;7388;51.078;13.740;2023-06-22T09:17:14;33.20;31.30
14604;DHT22;7388;51.078;13.740;2023-06-22T09:19:40;33.10;30.50
14604;DHT22;7388;51.078;13.740;2023-06-22T09:22:14;33.10;30.90
14604;DHT22;7388;51.078;13.740;2023-06-22T09:24:40;33.20;31.30
14604;DHT22;7388;51.078;13.740;2023-06-22T09:27:06;33.20;31.90
14604;DHT22;7388;51.078;13.740;2023-06-22T09:29:32;33.30;31.70
14604;DHT22;7388;51.078;13.740;2023-06-22T09:32:02;33.30;31.50
14604;DHT22;7388;51.078;13.740;2023-06-22T09:34:28;33.40;31.60
14604;DHT22;7388;51.078;13.740;2023-06-22T09:36:53;33.40;30.10
14604;DHT22;7388;51.078;13.740;2023-06-22T09:39:20;33.40;30.50
14604;DHT22;7388;51.078;13.740;2023-06-22T09:41:46;33.40;30.50
14604;DHT22;7388;51.078;13.740;2023-06-22T09:44:12;33.40;30.70
14604;DHT22;7388;51.078;13.740;2023-06-22T09:46:37;33.50;30.00
14604;DHT22;7388;51.078;13.740;2023-06-22T09:49:03;33.50;30.70
14604;DHT22;7388;51.078;13.740;2023-06-22T09:51:29;33.60;29.70
14604;DHT22;7388;51.078;13.740;2023-06-22T09:53:55;33.70;30.40
14604;DHT22;7388;51.078;13.740;2023-06-22T09:56:21;33.80;30.50
14604;DHT22;7388;51.078;13.740;2023-06-22T09:58:47;33.90;30.50
14604;DHT22;7388;51.078;13.740;2023-06-22T10:01:13;33.90;30.30
14604;DHT22;7388;51.078;13.740;2023-06-22T10:03:42;33.90;30.70
14604;DHT22;7388;51.078;13.740;2023-06-22T10:06:08;33.80;31.00
14604;DHT22;7388;51.078;13.740;2023-06-22T10:08:35;33.80;31.50
14604;DHT22;7388;51.078;13.740;2023-06-22T10:11:01;33.90;31.50
14604;DHT22;7388;51.078;13.740;2023-06-22T10:13:27;33.90;31.90
14604;DHT22;7388;51.078;13.740;2023-06-22T10:15:52;34.00;32.20
14604;DHT22;7388;51.078;13.740;2023-06-22T10:18:19;34.00;32.40
14604;DHT22;7388;51.078;13.740;2023-06-22T10:20:49;33.90;31.00
14604;DHT22;7388;51.078;13.740;2023-06-22T10:23:19;33.90;31.30
14604;DHT22;7388;51.078;13.740;2023-06-22T10:25:45;33.90;32.50
14604;DHT22;7388;51.078;13.740;2023-06-22T10:28:11;34.00;33.60
14604;DHT22;7388;51.078;13.740;2023-06-22T10:30:38;34.10;32.60
14604;DHT22;7388;51.078;13.740;2023-06-22T10:33:07;34.10;31.70
14604;DHT22;7388;51.078;13.740;2023-06-22T10:35:33;34.20;31.70
14604;DHT22;7388;51.078;13.740;2023-06-22T10:37:59;34.20;31.80
14604;DHT22;7388;51.078;13.740;2023-06-22T10:40:25;34.20;31.80
14604;DHT22;7388;51.078;13.740;2023-06-22T10:42:51;34.00;31.40
14604;DHT22;7388;51.078;13.740;2023-06-22T10:45:17;34.00;31.30
14604;DHT22;7388;51.078;13.740;2023-06-22T10:47:42;34.00;32.20
14604;DHT22;7388;51.078;13.740;2023-06-22T10:50:08;34.10;32.80
14604;DHT22;7388;51.078;13.740;2023-06-22T10:52:34;34.20;32.00
14604;DHT22;7388;51.078;13.740;2023-06-22T10:55:00;34.20;31.80
14604;DHT22;7388;51.078;13.740;2023-06-22T10:57:26;34.20;31.00
14604;DHT22;7388;51.078;13.740;2023-06-22T10:59:51;34.20;32.20
14604;DHT22;7388;51.078;13.740;2023-06-22T11:02:17;34.40;32.60
14604;DHT22;7388;51.078;13.740;2023-06-22T11:04:43;34.50;31.70
14604;DHT22;7388;51.078;13.740;2023-06-22T11:07:09;34.50;31.20
14604;DHT22;7388;51.078;13.740;2023-06-22T11:09:35;34.50;30.00
14604;DHT22;7388;51.078;13.740;2023-06-22T11:12:00;34.40;30.60
14604;DHT22;7388;51.078;13.740;2023-06-22T11:14:26;34.40;29.80
14604;DHT22;7388;51.078;13.740;2023-06-22T11:16:52;34.20;31.10
14604;DHT22;7388;51.078;13.740;2023-06-22T11:19:18;34.10;30.90
14604;DHT22;7388;51.078;13.740;2023-06-22T11:21:44;34.00;31.10
14604;DHT22;7388;51.078;13.740;2023-06-22T11:24:10;34.00;32.10
14604;DHT22;7388;51.078;13.740;2023-06-22T11:26:36;34.00;31.10
14604;DHT22;7388;51.078;13.740;2023-06-22T11:29:02;33.90;31.30
14604;DHT22;7388;51.078;13.740;2023-06-22T11:31:35;33.90;30.80
14604;DHT22;7388;51.078;13.740;2023-06-22T11:34:01;33.90;31.00
14604;DHT22;7388;51.078;13.740;2023-06-22T11:36:28;33.90;31.90
14604;DHT22;7388;51.078;13.740;2023-06-22T11:38:54;34.10;32.70
14604;DHT22;7388;51.078;13.740;2023-06-22T11:41:20;34.20;32.60
14604;DHT22;7388;51.078;13.740;2023-06-22T11:43:46;34.50;32.20
14604;DHT22;7388;51.078;13.740;2023-06-22T11:46:11;34.70;31.80
14604;DHT22;7388;51.078;13.740;2023-06-22T11:48:37;34.90;31.10
14604;DHT22;7388;51.078;13.740;2023-06-22T11:51:03;35.10;31.50
14604;DHT22;7388;51.078;13.740;2023-06-22T11:53:29;35.20;30.80
14604;DHT22;7388;51.078;13.740;2023-06-22T11:55:56;35.30;31.00
14604;DHT22;7388;51.078;13.740;2023-06-22T11:58:22;35.20;29.70
14604;DHT22;7388;51.078;13.740;2023-06-22T12:00:48;35.10;30.10
14604;DHT22;7388;51.078;13.740;2023-06-22T12:03:15;35.10;30.80
14604;DHT22;7388;51.078;13.740;2023-06-22T12:05:42;35.20;31.20
14604;DHT22;7388;51.078;13.740;2023-06-22T12:08:08;35.20;29.70
14604;DHT22;7388;51.078;13.740;2023-06-22T12:10:33;35.20;30.50
14604;DHT22;7388;51.078;13.740;2023-06-22T12:12:59;35.20;29.30
14604;DHT22;7388;51.078;13.740;2023-06-22T12:15:26;35.10;29.40
14604;DHT22;7388;51.078;13.740;2023-06-22T12:17:52;35.10;30.00
14604;DHT22;7388;51.078;13.740;2023-06-22T12:20:18;35.00;30.10
14604;DHT22;7388;51.078;13.740;2023-06-22T12:22:44;34.90;29.20
14604;DHT22;7388;51.078;13.740;2023-06-22T12:25:10;35.00;30.40
14604;DHT22;7388;51.078;13.740;2023-06-22T12:27:36;34.90;29.60
14604;DHT22;7388;51.078;13.740;2023-06-22T12:30:03;35.00;29.70
14604;DHT22;7388;51.078;13.740;2023-06-22T12:32:29;35.00;30.00
14604;DHT22;7388;51.078;13.740;2023-06-22T12:34:55;34.90;30.00
14604;DHT22;7388;51.078;13.740;2023-06-22T12:37:20;34.90;29.60
14604;DHT22;7388;51.078;13.740;2023-06-22T12:39:46;34.80;29.80
14604;DHT22;7388;51.078;13.740;2023-06-22T12:42:12;34.80;31.10
14604;DHT22;7388;51.078;13.740;2023-06-22T12:44:38;34.90;29.60
14604;DHT22;7388;51.078;13.740;2023-06-22T12:47:05;34.90;30.10
14604;DHT22;7388;51.078;13.740;2023-06-22T12:49:31;35.00;29.30
14604;DHT22;7388;51.078;13.740;2023-06-22T12:51:57;34.90;29.10
14604;DHT22;7388;51.078;13.740;2023-06-22T12:54:23;34.80;29.60
14604;DHT22;7388;51.078;13.740;2023-06-22T12:56:50;34.90;29.50
14604;DHT22;7388;51.078;13.740;2023-06-22T12:59:16;34.90;29.10
14604;DHT22;7388;51.078;13.740;2023-06-22T13:01:43;35.00;30.30
14604;DHT22;7388;51.078;13.740;2023-06-22T13:04:12;35.20;30.20
14604;DHT22;7388;51.078;13.740;2023-06-22T13:06:43;35.30;31.30
14604;DHT22;7388;51.078;13.740;2023-06-22T13:09:10;35.40;30.20
14604;DHT22;7388;51.078;13.740;2023-06-22T13:11:36;35.40;30.30
14604;DHT22;7388;51.078;13.740;2023-06-22T13:14:01;35.30;30.50
14604;DHT22;7388;51.078;13.740;2023-06-22T13:16:27;35.30;29.50
14604;DHT22;7388;51.078;13.740;2023-06-22T13:18:53;35.30;30.00
14604;DHT22;7388;51.078;13.740;2023-06-22T13:21:19;35.30;30.20
14604;DHT22;7388;51.078;13.740;2023-06-22T13:23:44;35.30;30.30
14604;DHT22;7388;51.078;13.740;2023-06-22T13:26:10;35.30;29.70
14604;DHT22;7388;51.078;13.740;2023-06-22T13:28:36;35.10;30.30
14604;DHT22;7388;51.078;13.740;2023-06-22T13:31:02;34.90;29.90
14604;DHT22;7388;51.078;13.740;2023-06-22T13:33:27;34.90;29.90
14604;DHT22;7388;51.078;13.740;2023-06-22T13:35:53;34.80;30.40
14604;DHT22;7388;51.078;13.740;2023-06-22T13:38:19;34.70;30.60
14604;DHT22;7388;51.078;13.740;2023-06-22T13:40:45;34.70;30.80
14604;DHT22;7388;51.078;13.740;2023-06-22T13:43:10;34.70;31.20
14604;DHT22;7388;51.078;13.740;2023-06-22T13:45:36;34.60;30.80
14604;DHT22;7388;51.078;13.740;2023-06-22T13:48:02;34.60;30.70
14604;DHT22;7388;51.078;13.740;2023-06-22T13:50:28;34.50;30.20
14604;DHT22;7388;51.078;13.740;2023-06-22T13:52:55;34.50;30.60
14604;DHT22;7388;51.078;13.740;2023-06-22T13:55:21;34.40;31.00
14604;DHT22;7388;51.078;13.740;2023-06-22T13:57:48;34.50;30.60
14604;DHT22;7388;51.078;13.740;2023-06-22T14:00:14;34.50;30.30
14604;DHT22;7388;51.078;13.740;2023-06-22T14:02:40;34.60;31.20
14604;DHT22;7388;51.078;13.740;2023-06-22T14:05:07;34.90;31.10
14604;DHT22;7388;51.078;13.740;2023-06-22T14:07:33;35.00;29.50
14604;DHT22;7388;51.078;13.740;2023-06-22T14:10:00;35.10;30.60
14604;DHT22;7388;51.078;13.740;2023-06-22T14:12:26;35.10;31.30
14604;DHT22;7388;51.078;13.740;2023-06-22T14:14:52;35.10;29.50
14604;DHT22;7388;51.078;13.740;2023-06-22T14:17:18;35.00;29.70
14604;DHT22;7388;51.078;13.740;2023-06-22T14:19:49;34.90;28.90
14604;DHT22;7388;51.078;13.740;2023-06-22T14:22:18;34.90;29.70
14604;DHT22;7388;51.078;13.740;2023-06-22T14:24:45;35.00;30.20
14604;DHT22;7388;51.078;13.740;2023-06-22T14:27:10;35.10;29.90
14604;DHT22;7388;51.078;13.740;2023-06-22T14:29:36;35.20;29.60
14604;DHT22;7388;51.078;13.740;2023-06-22T14:32:02;35.10;29.40
14604;DHT22;7388;51.078;13.740;2023-06-22T14:34:28;35.00;29.20
14604;DHT22;7388;51.078;13.740;2023-06-22T14:36:54;35.00;29.90
14604;DHT22;7388;51.078;13.740;2023-06-22T14:39:19;35.00;30.10
14604;DHT22;7388;51.078;13.740;2023-06-22T14:41:46;34.90;29.40
14604;DHT22;7388;51.078;13.740;2023-06-22T14:44:12;35.00;29.70
14604;DHT22;7388;51.078;13.740;2023-06-22T14:46:38;35.00;30.20
14604;DHT22;7388;51.078;13.740;2023-06-22T14:49:03;35.00;30.20
14604;DHT22;7388;51.078;13.740;2023-06-22T14:51:29;35.10;30.30
14604;DHT22;7388;51.078;13.740;2023-06-22T14:53:55;35.10;30.90
14604;DHT22;7388;51.078;13.740;2023-06-22T14:56:21;35.10;29.10
14604;DHT22;7388;51.078;13.740;2023-06-22T14:58:47;35.10;29.00
14604;DHT22;7388;51.078;13.740;2023-06-22T15:01:13;35.10;29.50
14604;DHT22;7388;51.078;13.740;2023-06-22T15:03:39;35.00;29.00
14604;DHT22;7388;51.078;13.740;2023-06-22T15:06:05;35.00;30.20
14604;DHT22;7388;51.078;13.740;2023-06-22T15:08:31;35.00;30.50
14604;DHT22;7388;51.078;13.740;2023-06-22T15:10:59;35.10;30.50
14604;DHT22;7388;51.078;13.740;2023-06-22T15:13:32;35.20;30.70
14604;DHT22;7388;51.078;13.740;2023-06-22T15:16:00;35.20;30.70
14604;DHT22;7388;51.078;13.740;2023-06-22T15:18:25;35.30;30.60
14604;DHT22;7388;51.078;13.740;2023-06-22T15:20:52;35.30;30.00
14604;DHT22;7388;51.078;13.740;2023-06-22T15:23:18;35.30;30.40
14604;DHT22;7388;51.078;13.740;2023-06-22T15:25:44;35.50;30.50
14604;DHT22;7388;51.078;13.740;2023-06-22T15:28:11;35.50;30.10
14604;DHT22;7388;51.078;13.740;2023-06-22T15:30:37;35.50;30.20
14604;DHT22;7388;51.078;13.740;2023-06-22T15:33:03;35.60;29.70